createdAt,value
2018-07-12T00:01:58.702Z,7.43
2018-07-12T00:05:01.585Z,6.83
2018-07-12T00:08:04.493Z,7.53
2018-07-12T00:11:07.438Z,6.40
2018-07-12T00:14:10.270Z,9.43
2018-07-12T00:17:13.082Z,6.17
2018-07-12T00:20:16.089Z,6.37
2018-07-12T00:23:19.193Z,6.73
2018-07-12T00:26:22.087Z,6.03
2018-07-12T00:29:25.085Z,6.07
2018-07-12T00:32:28.121Z,7.17
2018-07-12T00:35:31.083Z,8.90
2018-07-12T00:38:33.989Z,6.40
2018-07-12T00:41:36.969Z,6.90
2018-07-12T00:44:39.945Z,6.40
2018-07-12T00:47:42.800Z,6.43
2018-07-12T00:50:45.715Z,6.53
2018-07-12T00:53:48.581Z,6.57
2018-07-12T00:56:51.589Z,7.83
2018-07-12T00:59:54.476Z,6.40
2018-07-12T01:02:57.502Z,7.23
2018-07-12T01:06:00.456Z,7.27
2018-07-12T01:09:03.547Z,7.67
2018-07-12T01:12:06.631Z,6.50
2018-07-12T01:15:09.519Z,7.93
2018-07-12T01:18:12.482Z,7.70
2018-07-12T01:21:15.557Z,6.87
2018-07-12T01:24:18.543Z,6.80
2018-07-12T01:27:21.485Z,6.63
2018-07-12T01:30:24.366Z,6.23
2018-07-12T01:33:27.462Z,6.27
2018-07-12T01:36:31.479Z,6.40
2018-07-12T01:39:34.434Z,6.07
2018-07-12T01:42:37.333Z,6.77
2018-07-12T01:45:40.304Z,8.37
2018-07-12T01:48:43.181Z,7.87
2018-07-12T01:51:46.177Z,7.67
2018-07-12T01:54:49.149Z,7.00
2018-07-12T01:57:52.050Z,6.83
2018-07-12T02:00:55.006Z,6.83
2018-07-12T02:03:57.921Z,6.77
2018-07-12T02:07:00.798Z,7.00
2018-07-12T02:10:03.835Z,7.07
2018-07-12T02:13:06.840Z,6.73
2018-07-12T02:16:09.929Z,7.23
2018-07-12T02:19:12.978Z,6.70
2018-07-12T02:22:15.911Z,7.50
2018-07-12T02:25:18.852Z,6.60
2018-07-12T02:28:21.749Z,6.87
2018-07-12T02:31:24.667Z,7.20
2018-07-12T02:34:27.561Z,7.40
2018-07-12T02:37:30.579Z,7.70
2018-07-12T02:40:33.493Z,6.70
2018-07-12T02:43:36.430Z,8.67
2018-07-12T02:46:39.396Z,7.43
2018-07-12T02:49:42.301Z,8.73
2018-07-12T02:52:45.179Z,7.50
2018-07-12T02:55:48.183Z,6.87
2018-07-12T02:58:51.271Z,6.53
2018-07-12T03:01:54.439Z,7.13
2018-07-12T03:04:57.379Z,7.10
2018-07-12T03:08:00.238Z,7.30
2018-07-12T03:11:03.215Z,10.10
2018-07-12T03:14:06.594Z,9.27
2018-07-12T03:17:09.504Z,9.03
2018-07-12T03:20:12.380Z,6.63
2018-07-12T03:23:15.285Z,7.27
2018-07-12T03:26:18.156Z,8.67
2018-07-12T03:29:21.057Z,7.57
2018-07-12T03:32:23.880Z,7.63
2018-07-12T03:35:26.902Z,6.80
2018-07-12T03:38:29.798Z,8.40
2018-07-12T03:41:32.814Z,6.83
2018-07-12T03:44:35.632Z,7.60
2018-07-12T03:47:38.595Z,8.47
2018-07-12T03:50:41.525Z,7.67
2018-07-12T03:53:44.423Z,7.70
2018-07-12T03:56:47.399Z,7.90
2018-07-12T03:59:50.449Z,9.97
2018-07-12T04:02:54.005Z,9.87
2018-07-12T04:05:58.582Z,7.97
2018-07-12T04:09:01.673Z,8.20
2018-07-12T04:12:04.713Z,8.53
2018-07-12T04:15:07.824Z,7.03
2018-07-12T04:18:11.029Z,8.20
2018-07-12T04:21:14.142Z,9.23
2018-07-12T04:24:17.234Z,7.63
2018-07-12T04:27:21.333Z,7.20
2018-07-12T04:30:24.270Z,8.10
2018-07-12T04:33:27.461Z,11.27
2018-07-12T04:36:30.582Z,10.37
2018-07-12T04:39:34.008Z,8.10
2018-07-12T04:42:37.020Z,8.30
2018-07-12T04:45:40.003Z,7.23
2018-07-12T04:48:43.250Z,9.30
2018-07-12T04:51:46.443Z,7.40
2018-07-12T04:54:49.491Z,8.03
2018-07-12T04:57:52.467Z,7.20
2018-07-12T05:00:56.386Z,8.10
2018-07-12T05:03:59.434Z,7.60
2018-07-12T05:07:02.534Z,9.47
2018-07-12T05:10:05.505Z,7.67
2018-07-12T05:13:08.446Z,8.07
2018-07-12T05:16:11.438Z,6.80
2018-07-12T05:19:14.497Z,8.37
2018-07-12T05:22:21.652Z,9.00
2018-07-12T05:25:24.704Z,8.93
2018-07-12T05:28:27.696Z,6.73
2018-07-12T05:31:30.831Z,8.17
2018-07-12T05:34:33.664Z,7.10
2018-07-12T05:37:38.182Z,7.03
2018-07-12T05:40:42.752Z,10.73
2018-07-12T05:43:47.274Z,7.10
2018-07-12T05:46:52.187Z,8.70
2018-07-12T05:49:57.330Z,9.57
2018-07-12T05:53:02.261Z,7.60
2018-07-12T05:56:07.400Z,10.17
2018-07-12T05:59:12.068Z,8.00
2018-07-12T06:02:24.044Z,11.83
2018-07-12T06:05:28.746Z,7.77
2018-07-12T06:08:33.557Z,8.50
2018-07-12T06:11:38.211Z,7.33
2018-07-12T06:14:43.259Z,8.20
2018-07-12T06:17:50.624Z,9.17
2018-07-12T06:20:55.283Z,9.73
2018-07-12T06:23:59.811Z,8.40
2018-07-12T06:27:04.528Z,10.33
2018-07-12T06:30:09.474Z,8.00
2018-07-12T06:33:13.986Z,5.57
2018-07-12T06:36:19.048Z,6.77
2018-07-12T06:39:23.798Z,8.23
2018-07-12T06:42:28.515Z,6.03
2018-07-12T06:45:33.095Z,4.90
2018-07-12T06:48:37.726Z,6.57
2018-07-12T06:51:42.181Z,5.60
2018-07-12T06:54:46.881Z,6.57
2018-07-12T06:57:51.346Z,8.03
2018-07-12T07:00:55.769Z,7.90
2018-07-12T07:04:00.336Z,6.50
2018-07-12T07:07:04.941Z,5.90
2018-07-12T07:10:09.530Z,5.83
2018-07-12T07:13:14.159Z,4.77
2018-07-12T07:16:19.015Z,8.87
2018-07-12T07:19:23.609Z,6.70
2018-07-12T07:22:28.309Z,5.10
2018-07-12T07:25:32.648Z,6.93
2018-07-12T07:28:37.534Z,4.70
2018-07-12T07:31:42.013Z,4.40
2018-07-12T07:34:46.813Z,5.57
2018-07-12T07:37:51.271Z,5.63
2018-07-12T07:40:55.859Z,5.13
2018-07-12T07:44:00.510Z,4.80
2018-07-12T07:47:05.053Z,5.90
2018-07-12T07:50:09.527Z,6.30
2018-07-12T07:53:14.117Z,7.53
2018-07-12T07:56:18.641Z,5.80
2018-07-12T07:59:23.138Z,7.83
2018-07-12T08:02:27.870Z,6.77
2018-07-12T08:05:32.284Z,6.23
2018-07-12T08:08:37.425Z,6.63
2018-07-12T08:11:41.771Z,7.17
2018-07-12T08:14:46.263Z,5.23
2018-07-12T08:17:50.706Z,4.77
2018-07-12T08:20:55.464Z,5.87
2018-07-12T08:23:59.930Z,6.60
2018-07-12T08:27:05.341Z,4.47
2018-07-12T08:30:10.421Z,5.90
2018-07-12T08:33:14.934Z,4.87
2018-07-12T08:36:19.653Z,4.23
2018-07-12T08:39:24.523Z,5.27
2018-07-12T08:42:29.020Z,3.43
2018-07-12T08:45:33.503Z,4.67
2018-07-12T08:48:38.281Z,6.00
2018-07-12T08:51:42.868Z,4.53
2018-07-12T08:54:47.403Z,3.30
2018-07-12T08:57:51.666Z,5.33
2018-07-12T09:00:56.195Z,6.50
2018-07-12T09:04:00.636Z,7.87
2018-07-12T09:07:05.149Z,5.17
2018-07-12T09:10:09.614Z,4.07
2018-07-12T09:13:14.156Z,3.77
2018-07-12T09:16:18.871Z,4.80
2018-07-12T09:19:23.385Z,3.77
2018-07-12T09:22:27.734Z,3.43
2018-07-12T09:25:32.242Z,5.73
2018-07-12T09:28:36.544Z,4.00
2018-07-12T09:31:41.061Z,3.03
2018-07-12T09:34:45.535Z,4.43
2018-07-12T09:37:49.982Z,4.70
2018-07-12T09:40:54.609Z,3.63
2018-07-12T09:43:59.097Z,4.90
2018-07-12T09:47:03.594Z,3.00
2018-07-12T09:50:07.791Z,4.70
2018-07-12T09:53:12.472Z,4.40
2018-07-12T09:56:16.944Z,3.73
2018-07-12T09:59:21.357Z,4.57
2018-07-12T10:02:31.161Z,3.30
2018-07-12T10:05:41.053Z,3.80
2018-07-12T10:08:50.550Z,5.03
2018-07-12T10:12:00.416Z,4.30
2018-07-12T10:15:10.391Z,4.37
2018-07-12T10:18:20.091Z,3.17
2018-07-12T10:21:24.573Z,5.07
2018-07-12T10:24:29.444Z,4.60
2018-07-12T10:27:33.772Z,3.23
2018-07-12T10:30:38.591Z,2.80
2018-07-12T10:33:43.348Z,3.03
2018-07-12T10:36:47.745Z,6.23
2018-07-12T10:39:52.185Z,4.50
2018-07-12T10:42:56.598Z,3.87
2018-07-12T10:46:00.909Z,3.50
2018-07-12T10:49:05.327Z,2.87
2018-07-12T10:52:09.829Z,4.27
2018-07-12T10:55:14.257Z,3.70
2018-07-12T10:58:18.711Z,4.03
2018-07-12T11:01:22.987Z,3.40
2018-07-12T11:04:27.732Z,3.43
2018-07-12T11:07:32.067Z,3.33
2018-07-12T11:10:36.587Z,4.97
2018-07-12T11:13:48.845Z,5.13
2018-07-12T11:16:53.452Z,2.60
2018-07-12T11:19:57.854Z,2.43
2018-07-12T11:23:02.529Z,2.87
2018-07-12T11:26:07.102Z,3.50
2018-07-12T11:29:11.661Z,3.93
2018-07-12T11:32:16.779Z,3.37
2018-07-12T11:35:21.926Z,2.87
2018-07-12T11:38:26.410Z,3.47
2018-07-12T11:41:30.876Z,2.03
2018-07-12T11:44:35.225Z,2.33
2018-07-12T11:47:39.765Z,2.93
2018-07-12T11:50:44.026Z,2.43
2018-07-12T11:53:48.651Z,2.10
2018-07-12T11:56:53.504Z,3.67
2018-07-12T11:59:58.174Z,3.87
2018-07-12T12:03:02.592Z,2.87
2018-07-12T12:06:07.165Z,2.27
2018-07-12T12:09:11.490Z,1.97
2018-07-12T12:12:16.405Z,2.57
2018-07-12T12:15:20.977Z,3.80
2018-07-12T12:18:25.566Z,3.70
2018-07-12T12:21:30.021Z,5.23
2018-07-12T12:24:34.961Z,6.07
2018-07-12T12:27:39.896Z,3.30
2018-07-12T12:30:44.882Z,5.27
2018-07-12T12:33:50.237Z,5.83
2018-07-12T12:36:55.073Z,5.10
2018-07-12T12:39:59.696Z,8.93
2018-07-12T12:43:04.233Z,4.93
2018-07-12T12:46:09.182Z,6.93
2018-07-12T12:49:13.980Z,5.97
2018-07-12T12:52:18.633Z,5.73
2018-07-12T12:55:30.022Z,6.90
2018-07-12T12:58:36.175Z,12.00
2018-07-12T13:01:40.551Z,8.17
2018-07-12T13:04:45.257Z,7.43
2018-07-12T13:07:49.905Z,7.23
2018-07-12T13:10:54.329Z,8.33
2018-07-12T13:13:59.040Z,8.40
2018-07-12T13:17:03.757Z,6.30
2018-07-12T13:20:09.132Z,4.77
2018-07-12T13:23:14.148Z,5.83
2018-07-12T13:26:22.991Z,2.87
2018-07-12T13:29:27.917Z,5.70
2018-07-12T13:32:32.539Z,4.47
2018-07-12T13:35:37.198Z,2.40
2018-07-12T13:38:41.528Z,4.40
2018-07-12T13:41:46.012Z,3.53
2018-07-12T13:44:50.406Z,2.10
2018-07-12T13:47:55.073Z,4.07
2018-07-12T13:50:59.644Z,3.03
2018-07-12T13:54:04.108Z,2.37
2018-07-12T13:57:08.798Z,7.87
2018-07-12T14:00:13.482Z,3.47
2018-07-12T14:03:18.054Z,5.93
2018-07-12T14:06:22.744Z,3.33
2018-07-12T14:09:27.563Z,4.57
2018-07-12T14:12:32.215Z,5.67
2018-07-12T14:15:37.031Z,4.30
2018-07-12T14:18:41.398Z,5.57
2018-07-12T14:21:46.475Z,5.17
2018-07-12T14:24:51.422Z,7.70
2018-07-12T14:27:55.863Z,4.60
2018-07-12T14:31:01.073Z,4.10
2018-07-12T14:34:05.760Z,4.87
2018-07-12T14:37:10.315Z,7.87
2018-07-12T14:40:15.097Z,4.57
2018-07-12T14:43:19.505Z,4.50
2018-07-12T14:46:24.325Z,3.20
2018-07-12T14:49:28.763Z,2.97
2018-07-12T14:52:33.538Z,3.03
2018-07-12T14:55:38.106Z,4.30
2018-07-12T14:58:42.711Z,3.27
2018-07-12T15:01:47.313Z,2.60
2018-07-12T15:04:52.140Z,3.63
2018-07-12T15:07:56.689Z,5.70
2018-07-12T15:11:01.364Z,3.20
2018-07-12T15:14:05.705Z,5.27
2018-07-12T15:17:10.098Z,3.97
2018-07-12T15:20:14.533Z,2.70
2018-07-12T15:23:19.100Z,3.07
2018-07-12T15:26:24.785Z,2.73
2018-07-12T15:29:29.474Z,3.60
2018-07-12T15:32:33.960Z,3.87
2018-07-12T15:35:38.711Z,5.13
2018-07-12T15:38:43.248Z,3.60
2018-07-12T15:41:48.601Z,6.33
2018-07-12T15:44:52.997Z,3.37
2018-07-12T15:47:57.547Z,4.17
2018-07-12T15:51:01.965Z,3.83
2018-07-12T15:54:06.436Z,3.97
2018-07-12T15:57:11.193Z,5.33
2018-07-12T16:00:15.773Z,5.47
2018-07-12T16:03:20.201Z,3.83
2018-07-12T16:06:24.649Z,4.13
2018-07-12T16:09:29.168Z,4.77
2018-07-12T16:12:33.813Z,6.33
2018-07-12T16:15:38.320Z,4.83
2018-07-12T16:18:42.831Z,4.27
2018-07-12T16:21:47.320Z,3.60
2018-07-12T16:24:51.748Z,7.27
2018-07-12T16:27:56.234Z,5.90
2018-07-12T16:31:00.581Z,3.97
2018-07-12T16:34:05.009Z,5.17
2018-07-12T16:37:09.896Z,5.80
2018-07-12T16:40:14.216Z,6.87
2018-07-12T16:43:18.714Z,6.47
2018-07-12T16:46:23.116Z,6.50
2018-07-12T16:49:27.483Z,4.07
2018-07-12T16:52:32.335Z,6.57
2018-07-12T16:55:36.689Z,7.07
2018-07-12T16:58:41.161Z,6.07
2018-07-12T17:01:45.650Z,6.03
2018-07-12T17:04:50.038Z,8.30
2018-07-12T17:07:54.694Z,8.33
2018-07-12T17:10:59.292Z,8.60
2018-07-12T17:14:03.737Z,8.20
2018-07-12T17:17:08.138Z,8.90
2018-07-12T17:20:12.562Z,7.53
2018-07-12T17:23:17.012Z,9.10
2018-07-12T17:26:21.577Z,8.17
2018-07-12T17:29:26.093Z,6.93
2018-07-12T17:32:30.770Z,9.67
2018-07-12T17:35:35.325Z,7.67
2018-07-12T17:38:39.849Z,7.67
2018-07-12T17:41:44.494Z,8.97
2018-07-12T17:44:48.972Z,6.67
2018-07-12T17:47:53.491Z,8.53
2018-07-12T17:50:58.043Z,9.70
2018-07-12T17:54:02.541Z,9.67
2018-07-12T17:57:07.646Z,8.43
2018-07-12T18:00:12.624Z,10.97
2018-07-12T18:03:19.225Z,9.67
2018-07-12T18:06:24.169Z,11.90
2018-07-12T18:09:28.858Z,7.80
2018-07-12T18:12:33.455Z,7.00
2018-07-12T18:15:39.117Z,8.83
2018-07-12T18:18:44.620Z,11.33
2018-07-12T18:21:49.211Z,8.40
2018-07-12T18:24:54.722Z,10.23
2018-07-12T18:27:59.437Z,7.93
2018-07-12T18:31:03.865Z,9.23
2018-07-12T18:34:08.318Z,10.47
2018-07-12T18:37:12.925Z,10.47
2018-07-12T18:40:17.395Z,7.37
2018-07-12T18:43:21.721Z,6.77
2018-07-12T18:46:26.341Z,10.13
2018-07-12T18:49:31.065Z,8.37
2018-07-12T18:52:35.769Z,9.57
2018-07-12T18:55:40.831Z,8.73
2018-07-12T18:58:45.273Z,8.63
2018-07-12T19:01:49.788Z,9.30
2018-07-12T19:04:54.207Z,11.63
2018-07-12T19:07:58.656Z,9.53
2018-07-12T19:11:03.076Z,8.20
2018-07-12T19:14:07.445Z,11.13
2018-07-12T19:17:12.034Z,12.10
2018-07-12T19:20:16.408Z,11.43
2018-07-12T19:23:20.841Z,10.40
2018-07-12T19:26:25.302Z,11.30
2018-07-12T19:29:29.764Z,16.13
2018-07-12T19:32:34.215Z,12.67
2018-07-12T19:35:38.722Z,13.00
2018-07-12T19:38:43.163Z,13.77
2018-07-12T19:41:47.589Z,10.57
2018-07-12T19:44:51.975Z,16.70
2018-07-12T19:47:56.476Z,15.07
2018-07-12T19:51:01.269Z,16.17
2018-07-12T19:54:05.999Z,14.63
2018-07-12T19:57:10.501Z,15.03
2018-07-12T20:00:15.089Z,14.90
2018-07-12T20:03:19.959Z,10.27
2018-07-12T20:06:24.551Z,13.07
2018-07-12T20:09:29.072Z,14.70
2018-07-12T20:12:33.452Z,14.00
2018-07-12T20:15:38.347Z,12.80
2018-07-12T20:18:42.766Z,12.00
2018-07-12T20:21:47.269Z,19.13
2018-07-12T20:24:51.789Z,13.00
2018-07-12T20:27:56.257Z,14.00
2018-07-12T20:31:00.760Z,13.70
2018-07-12T20:34:05.177Z,16.80
2018-07-12T20:37:09.816Z,16.10
2018-07-12T20:40:14.225Z,13.33
2018-07-12T20:43:20.681Z,16.27
2018-07-12T20:46:25.282Z,14.37
2018-07-12T20:49:29.754Z,15.03
2018-07-12T20:52:34.429Z,14.93
2018-07-12T20:55:41.949Z,14.77
2018-07-12T20:58:46.402Z,16.93
2018-07-12T21:01:50.799Z,17.90
2018-07-12T21:04:55.304Z,20.10
2018-07-12T21:07:59.868Z,17.80
2018-07-12T21:11:04.458Z,16.73
2018-07-12T21:14:09.056Z,18.03
2018-07-12T21:17:13.642Z,19.20
2018-07-12T21:20:18.424Z,22.40
2018-07-12T21:23:23.690Z,17.30
2018-07-12T21:26:28.041Z,16.80
2018-07-12T21:29:32.445Z,17.30
2018-07-12T21:32:37.404Z,18.40
2018-07-12T21:35:41.977Z,21.37
2018-07-12T21:38:46.870Z,19.47
2018-07-12T21:41:51.525Z,18.77
2018-07-12T21:44:56.066Z,23.23
2018-07-12T21:48:00.618Z,16.47
2018-07-12T21:51:05.774Z,19.77
2018-07-12T21:54:10.463Z,17.27
2018-07-12T21:57:15.070Z,18.03
2018-07-12T22:00:19.962Z,19.20
2018-07-12T22:03:24.638Z,17.30
2018-07-12T22:06:59.249Z,19.07
2018-07-12T22:10:04.855Z,19.47
2018-07-12T22:13:10.345Z,17.60
2018-07-12T22:16:14.841Z,17.80
2018-07-12T22:19:19.324Z,18.40
2018-07-12T22:22:23.727Z,16.37
2018-07-12T22:25:28.469Z,16.67
2018-07-12T22:28:32.967Z,24.23
2018-07-12T22:31:37.199Z,20.20
2018-07-12T22:34:41.590Z,21.90
2018-07-12T22:37:46.101Z,20.70
2018-07-12T22:40:50.517Z,22.93
2018-07-12T22:43:54.914Z,22.43
2018-07-12T22:46:59.328Z,21.80
2018-07-12T22:50:03.828Z,20.17
2018-07-12T22:53:08.196Z,22.13
2018-07-12T22:56:12.674Z,24.43
2018-07-12T22:59:16.811Z,23.07
2018-07-12T23:02:21.200Z,23.40
2018-07-12T23:05:25.546Z,23.43
2018-07-12T23:08:29.875Z,24.07
2018-07-12T23:11:34.288Z,23.43
2018-07-12T23:14:38.643Z,23.93
2018-07-12T23:17:43.240Z,22.23
2018-07-12T23:20:47.705Z,24.90
2018-07-12T23:23:52.041Z,24.90
2018-07-12T23:26:56.559Z,26.37
2018-07-12T23:30:00.898Z,26.63
2018-07-12T23:33:05.307Z,30.23
2018-07-12T23:36:10.221Z,27.93
2018-07-12T23:39:15.413Z,30.97
2018-07-12T23:42:20.194Z,27.87
2018-07-12T23:45:25.437Z,31.00
2018-07-12T23:48:30.286Z,28.57
2018-07-12T23:51:35.876Z,29.13
2018-07-12T23:54:40.551Z,33.73
2018-07-12T23:57:45.286Z,28.57
